createdAt,value
2018-06-04T00:00:22.771Z,99.90
2018-06-04T00:02:51.698Z,99.90
2018-06-04T00:05:29.932Z,99.90
2018-06-04T00:07:58.868Z,99.90
2018-06-04T00:13:32.300Z,99.90
2018-06-04T00:16:01.260Z,99.90
2018-06-04T00:18:30.109Z,99.90
2018-06-04T00:21:00.523Z,99.90
2018-06-04T00:23:30.191Z,99.90
2018-06-04T00:25:59.543Z,99.90
2018-06-04T00:28:28.490Z,99.90
2018-06-04T00:34:22.285Z,99.90
2018-06-04T00:36:58.781Z,99.90
2018-06-04T00:39:35.404Z,99.90
2018-06-04T00:42:29.114Z,99.90
2018-06-04T00:47:32.555Z,99.90
2018-06-04T00:50:01.575Z,99.90
2018-06-04T00:52:30.449Z,99.90
2018-06-04T00:57:58.706Z,99.90
2018-06-04T01:06:32.036Z,99.90
2018-06-04T01:09:00.954Z,99.90
2018-06-04T01:11:59.480Z,99.90
2018-06-04T01:14:28.931Z,99.90
2018-06-04T01:16:58.649Z,99.90
2018-06-04T01:19:27.707Z,99.90
2018-06-04T01:24:30.327Z,99.90
2018-06-04T01:26:59.863Z,99.90
2018-06-04T01:32:44.496Z,99.90
2018-06-04T01:35:13.676Z,99.90
2018-06-04T01:37:42.779Z,99.90
2018-06-04T01:43:18.807Z,99.90
2018-06-04T01:45:48.155Z,99.90
2018-06-04T01:48:17.844Z,99.90
2018-06-04T01:50:46.942Z,99.90
2018-06-04T01:53:16.483Z,99.90
2018-06-04T01:55:46.242Z,99.90
2018-06-04T01:58:15.346Z,99.90
2018-06-04T02:00:45.558Z,99.90
2018-06-04T02:03:15.840Z,99.90
2018-06-04T02:05:45.061Z,99.90
2018-06-04T02:08:14.506Z,99.90
2018-06-04T02:10:44.280Z,99.90
2018-06-04T02:13:13.478Z,99.90
2018-06-04T02:15:43.143Z,99.90
2018-06-04T02:18:12.832Z,99.90
2018-06-04T02:20:41.768Z,99.90
2018-06-04T02:23:11.154Z,99.90
2018-06-04T02:25:40.904Z,99.90
2018-06-04T02:28:10.085Z,99.90
2018-06-04T02:30:39.080Z,99.90
2018-06-04T02:33:08.165Z,99.90
2018-06-04T02:35:37.209Z,99.90
2018-06-04T02:38:06.258Z,99.90
2018-06-04T02:40:35.206Z,99.90
2018-06-04T02:43:04.715Z,99.90
2018-06-04T02:45:33.906Z,99.90
2018-06-04T02:48:03.579Z,99.90
2018-06-04T02:50:33.094Z,99.90
2018-06-04T02:53:02.631Z,99.90
2018-06-04T02:55:32.088Z,99.90
2018-06-04T02:58:01.367Z,99.90
2018-06-04T03:00:31.275Z,99.90
2018-06-04T03:05:29.936Z,99.90
2018-06-04T03:07:59.211Z,99.90
2018-06-04T03:10:29.256Z,99.90
2018-06-04T03:12:58.389Z,99.90
2018-06-04T03:15:27.841Z,99.90
2018-06-04T03:17:57.112Z,99.90
2018-06-04T03:23:01.068Z,99.90
2018-06-04T03:25:31.216Z,99.90
2018-06-04T03:28:00.400Z,99.90
2018-06-04T03:33:40.873Z,99.90
2018-06-04T03:36:11.087Z,99.90
2018-06-04T03:38:40.357Z,99.90
2018-06-04T03:41:10.429Z,99.90
2018-06-04T03:43:40.675Z,99.90
2018-06-04T03:46:10.405Z,99.90
2018-06-04T03:48:39.444Z,99.90
2018-06-04T03:51:08.947Z,99.90
2018-06-04T03:53:38.218Z,99.90
2018-06-04T03:56:07.886Z,99.90
2018-06-04T03:58:37.356Z,99.90
2018-06-04T04:01:06.587Z,99.90
2018-06-04T04:03:36.043Z,99.90
2018-06-04T04:06:05.762Z,99.90
2018-06-04T04:08:35.357Z,99.90
2018-06-04T04:13:33.130Z,99.90
2018-06-04T04:16:02.679Z,99.90
2018-06-04T04:18:31.467Z,99.90
2018-06-04T04:26:26.729Z,99.90
2018-06-04T04:28:55.506Z,99.90
2018-06-04T04:31:24.742Z,99.90
2018-06-04T04:33:55.613Z,99.90
2018-06-04T04:36:24.459Z,99.90
2018-06-04T04:38:53.360Z,99.90
2018-06-04T04:43:50.792Z,99.90
2018-06-04T04:46:19.646Z,99.90
2018-06-04T04:48:48.561Z,99.90
2018-06-04T04:51:17.598Z,99.90
2018-06-04T04:53:46.414Z,99.90
2018-06-04T04:56:15.920Z,99.90
2018-06-04T04:58:44.705Z,99.90
2018-06-04T05:01:13.982Z,99.90
2018-06-04T05:03:43.282Z,99.90
2018-06-04T05:15:28.316Z,99.90
2018-06-04T05:18:07.108Z,99.90
2018-06-04T05:20:36.004Z,99.90
2018-06-04T05:23:12.339Z,99.90
2018-06-04T05:25:41.359Z,99.90
2018-06-04T05:28:20.601Z,99.90
2018-06-04T05:31:00.871Z,99.90
2018-06-04T05:33:29.751Z,99.90
2018-06-04T05:35:58.654Z,99.90
2018-06-04T05:38:27.632Z,99.90
2018-06-04T05:40:56.544Z,99.90
2018-06-04T05:43:25.478Z,99.90
2018-06-04T05:45:54.330Z,99.90
2018-06-04T05:48:23.427Z,99.90
2018-06-04T05:53:21.065Z,99.90
2018-06-04T05:55:49.958Z,99.90
2018-06-04T05:58:18.808Z,99.90
2018-06-04T06:00:59.303Z,99.90
2018-06-04T06:03:29.177Z,99.90
2018-06-04T06:05:58.202Z,99.90
2018-06-04T06:14:00.926Z,99.90
2018-06-04T06:16:29.947Z,99.90
2018-06-04T06:19:00.901Z,99.90
2018-06-04T06:21:29.898Z,99.90
2018-06-04T06:23:58.894Z,99.90
2018-06-04T06:26:29.117Z,99.90
2018-06-04T06:28:58.102Z,99.90
2018-06-04T06:31:26.958Z,99.90
2018-06-04T06:34:01.515Z,99.90
2018-06-04T06:36:30.374Z,99.90
2018-06-04T06:41:37.740Z,99.90
2018-06-04T06:44:06.585Z,99.90
2018-06-04T06:49:04.031Z,99.90
2018-06-04T06:51:32.720Z,99.90
2018-06-04T06:54:01.735Z,99.90
2018-06-04T06:56:31.324Z,99.90
2018-06-04T06:59:00.069Z,99.90
2018-06-04T07:01:28.753Z,99.90
2018-06-04T07:03:57.398Z,99.90
2018-06-04T07:06:37.070Z,99.90
2018-06-04T07:09:16.411Z,99.90
2018-06-04T07:11:46.513Z,99.90
2018-06-04T07:14:15.395Z,99.90
2018-06-04T07:16:44.963Z,99.90
2018-06-04T07:19:15.956Z,99.90
2018-06-04T07:21:44.955Z,99.90
2018-06-04T07:27:10.547Z,99.90
2018-06-04T07:29:45.662Z,99.90
2018-06-04T07:32:15.391Z,99.90
2018-06-04T07:34:44.255Z,99.90
2018-06-04T07:37:13.006Z,99.90
2018-06-04T07:39:42.374Z,99.90
2018-06-04T07:42:24.702Z,99.90
2018-06-04T07:44:59.864Z,99.90
2018-06-04T07:47:32.758Z,99.90
2018-06-04T07:50:01.875Z,99.90
2018-06-04T07:52:30.588Z,99.90
2018-06-04T07:55:03.322Z,99.90
2018-06-04T07:57:33.685Z,99.90
2018-06-04T08:00:02.499Z,99.90
2018-06-04T08:02:52.447Z,99.90
2018-06-04T08:05:21.227Z,99.90
2018-06-04T08:07:59.764Z,99.90
2018-06-04T08:10:29.121Z,99.90
2018-06-04T08:15:26.860Z,99.90
2018-06-04T08:17:55.664Z,99.90
2018-06-04T08:20:24.573Z,99.90
2018-06-04T08:25:09.749Z,99.90
2018-06-04T08:27:56.769Z,99.90
2018-06-04T08:32:58.167Z,99.90
2018-06-04T08:35:30.427Z,99.90
2018-06-04T08:37:59.316Z,99.90
2018-06-04T08:40:32.657Z,99.90
2018-06-04T08:43:01.425Z,99.90
2018-06-04T08:45:30.470Z,99.90
2018-06-04T08:48:00.394Z,99.90
2018-06-04T08:50:33.705Z,99.90
2018-06-04T08:53:14.216Z,99.90
2018-06-04T08:55:43.042Z,99.90
2018-06-04T08:58:11.795Z,99.90
2018-06-04T09:00:40.557Z,99.90
2018-06-04T09:06:05.050Z,99.90
2018-06-04T09:08:33.778Z,99.90
2018-06-04T09:11:02.987Z,99.90
2018-06-04T09:13:31.931Z,99.90
2018-06-04T09:16:01.027Z,99.90
2018-06-04T09:18:29.920Z,99.90
2018-06-04T09:21:00.355Z,99.90
2018-06-04T09:23:29.149Z,99.90
2018-06-04T09:28:56.079Z,99.90
2018-06-04T09:33:54.123Z,99.90
2018-06-04T09:36:38.396Z,99.90
2018-06-04T09:39:08.097Z,99.90
2018-06-04T09:41:37.031Z,99.90
2018-06-04T09:44:06.394Z,99.90
2018-06-04T09:46:35.318Z,99.90
2018-06-04T09:49:04.166Z,99.90
2018-06-04T09:51:37.612Z,99.90
2018-06-04T09:54:15.748Z,99.90
2018-06-04T09:56:44.997Z,99.90
2018-06-04T09:59:17.815Z,99.90
2018-06-04T10:01:48.149Z,99.90
2018-06-04T10:04:16.899Z,99.90
2018-06-04T10:06:45.686Z,99.90
2018-06-04T10:09:14.598Z,99.90
2018-06-04T10:11:50.298Z,99.90
2018-06-04T10:17:09.116Z,99.90
2018-06-04T10:19:47.374Z,99.90
2018-06-04T10:22:19.250Z,99.20
2018-06-04T10:24:48.166Z,98.70
2018-06-04T10:27:21.697Z,99.40
2018-06-04T10:29:50.457Z,99.10
2018-06-04T10:32:19.143Z,98.20
2018-06-04T10:34:47.835Z,98.40
2018-06-04T10:37:17.316Z,99.70
2018-06-04T10:39:48.059Z,99.20
2018-06-04T10:44:57.839Z,99.90
2018-06-04T10:47:29.397Z,99.90
2018-06-04T10:49:58.385Z,99.90
2018-06-04T10:52:27.612Z,99.90
2018-06-04T10:54:56.563Z,97.50
2018-06-04T10:57:25.370Z,99.70
2018-06-04T10:59:54.093Z,99.90
2018-06-04T11:02:22.845Z,99.90
2018-06-04T11:04:51.628Z,99.90
2018-06-04T11:07:31.754Z,99.90
2018-06-04T11:10:01.097Z,99.90
2018-06-04T11:12:30.361Z,99.90
2018-06-04T11:17:36.778Z,99.90
2018-06-04T11:20:05.667Z,99.90
2018-06-04T11:22:34.926Z,99.90
2018-06-04T11:25:04.079Z,99.90
2018-06-04T11:27:47.495Z,99.90
2018-06-04T11:30:16.328Z,99.90
2018-06-04T11:32:45.365Z,99.90
2018-06-04T11:35:14.149Z,99.90
2018-06-04T11:37:42.912Z,99.90
2018-06-04T11:40:17.498Z,99.90
2018-06-04T11:42:50.831Z,99.90
2018-06-04T11:45:19.580Z,99.90
2018-06-04T11:47:49.400Z,99.90
2018-06-04T11:50:18.139Z,99.90
2018-06-04T11:52:47.265Z,99.90
2018-06-04T11:55:15.939Z,99.90
2018-06-04T11:57:45.080Z,99.90
2018-06-04T12:00:14.097Z,99.90
2018-06-04T12:02:42.849Z,99.90
2018-06-04T12:05:11.923Z,99.90
2018-06-04T12:07:42.147Z,99.90
2018-06-04T12:10:17.166Z,99.90
2018-06-04T12:12:46.193Z,99.90
2018-06-04T12:15:15.019Z,99.90
2018-06-04T12:17:50.042Z,99.50
2018-06-04T12:22:49.416Z,99.90
2018-06-04T12:25:18.812Z,99.90
2018-06-04T12:30:28.775Z,99.90
2018-06-04T12:32:57.599Z,99.90
2018-06-04T12:35:40.447Z,99.90
2018-06-04T12:38:12.438Z,99.90
2018-06-04T12:43:17.355Z,99.90
2018-06-04T12:45:46.063Z,99.80
2018-06-04T12:48:14.782Z,98.20
2018-06-04T12:50:43.573Z,98.80
2018-06-04T12:53:12.287Z,98.00
2018-06-04T12:55:41.069Z,98.30
2018-06-04T12:58:18.289Z,99.90
2018-06-04T13:00:52.738Z,97.90
2018-06-04T13:03:21.757Z,98.20
2018-06-04T13:05:50.574Z,95.60
2018-06-04T13:08:19.392Z,98.50
2018-06-04T13:10:48.159Z,99.30
2018-06-04T13:13:36.178Z,96.90
2018-06-04T13:16:04.981Z,97.40
2018-06-04T13:18:39.462Z,97.50
2018-06-04T13:21:08.590Z,98.90
2018-06-04T13:23:37.664Z,99.60
2018-06-04T13:26:06.498Z,99.90
2018-06-04T13:28:37.204Z,98.70
2018-06-04T13:31:06.008Z,98.20
2018-06-04T13:33:35.649Z,98.40
2018-06-04T13:36:08.361Z,98.80
2018-06-04T13:38:38.762Z,99.80
2018-06-04T13:41:07.658Z,99.60
2018-06-04T13:43:37.533Z,97.90
2018-06-04T13:46:06.363Z,99.10
2018-06-04T13:48:35.082Z,99.20
2018-06-04T13:51:17.278Z,98.80
2018-06-04T13:53:46.825Z,99.90
2018-06-04T13:56:18.014Z,99.90
2018-06-04T13:58:51.099Z,99.90
2018-06-04T14:01:20.499Z,99.90
2018-06-04T14:04:18.046Z,98.80
2018-06-04T14:06:46.769Z,99.90
2018-06-04T14:09:15.625Z,98.70
2018-06-04T14:11:50.444Z,99.60
2018-06-04T14:19:18.885Z,99.40
2018-06-04T14:21:47.657Z,99.70
2018-06-04T14:24:29.974Z,99.90
2018-06-04T14:26:58.735Z,99.90
2018-06-04T14:29:27.577Z,99.90
2018-06-04T14:34:51.327Z,99.90
2018-06-04T14:37:20.203Z,99.90
2018-06-04T14:39:48.932Z,99.90
2018-06-04T14:42:17.574Z,99.90
2018-06-04T14:44:51.330Z,99.90
2018-06-04T14:47:20.907Z,99.90
2018-06-04T14:49:49.690Z,99.90
2018-06-04T14:52:51.059Z,99.90
2018-06-04T14:55:49.638Z,99.90
2018-06-04T15:00:53.692Z,99.90
2018-06-04T15:03:28.416Z,99.90
2018-06-04T15:05:57.201Z,99.90
2018-06-04T15:08:26.060Z,99.90
2018-06-04T15:11:00.233Z,99.90
2018-06-04T15:16:08.392Z,99.90
2018-06-04T15:18:37.077Z,99.90
2018-06-04T15:21:05.805Z,99.90
2018-06-04T15:23:34.472Z,99.90
2018-06-04T15:26:03.307Z,99.90
2018-06-04T15:28:31.867Z,99.90
2018-06-04T15:31:18.803Z,99.90
2018-06-04T15:33:51.398Z,99.90
2018-06-04T15:36:21.096Z,99.90
2018-06-04T15:38:49.891Z,99.90
2018-06-04T15:41:33.784Z,99.90
2018-06-04T15:44:02.653Z,99.90
2018-06-04T15:46:31.537Z,99.90
2018-06-04T15:49:07.466Z,99.90
2018-06-04T15:51:39.747Z,99.90
2018-06-04T15:54:08.610Z,99.90
2018-06-04T15:56:38.496Z,99.90
2018-06-04T15:59:14.109Z,99.90
2018-06-04T16:01:43.420Z,99.90
2018-06-04T16:04:12.309Z,99.90
2018-06-04T16:06:41.094Z,99.90
2018-06-04T16:12:03.354Z,99.90
2018-06-04T16:14:36.828Z,99.90
2018-06-04T16:17:05.788Z,99.90
2018-06-04T16:19:34.638Z,99.90
2018-06-04T16:25:01.462Z,99.90
2018-06-04T16:27:30.515Z,99.90
2018-06-04T16:29:59.387Z,99.90
2018-06-04T16:32:28.122Z,99.90
2018-06-04T16:34:57.021Z,99.90
2018-06-04T16:39:59.196Z,99.90
2018-06-04T16:42:36.844Z,99.90
2018-06-04T16:45:06.110Z,99.90
2018-06-04T16:47:39.617Z,99.90
2018-06-04T16:51:24.634Z,99.90
2018-06-04T16:53:54.844Z,99.90
2018-06-04T16:56:23.604Z,99.90
2018-06-04T16:58:52.728Z,99.90
2018-06-04T17:01:21.413Z,99.90
2018-06-04T17:03:50.364Z,99.90
2018-06-04T17:06:20.821Z,99.90
2018-06-04T17:08:51.354Z,99.90
2018-06-04T17:11:48.191Z,99.90
2018-06-04T17:22:26.650Z,99.90
2018-06-04T17:24:55.405Z,99.90
2018-06-04T17:27:24.227Z,99.90
2018-06-04T17:29:53.152Z,99.90
2018-06-04T17:32:22.374Z,99.90
2018-06-04T17:34:51.352Z,99.90
2018-06-04T17:37:21.961Z,99.90
2018-06-04T17:39:50.692Z,99.90
2018-06-04T17:42:48.119Z,99.90
2018-06-04T17:57:17.461Z,99.90
2018-06-04T18:02:54.576Z,99.90
2018-06-04T18:05:23.821Z,99.90
2018-06-04T18:08:00.748Z,99.90
2018-06-04T18:10:29.732Z,99.90
2018-06-04T18:12:58.795Z,99.90
2018-06-04T18:21:18.794Z,99.90
2018-06-04T18:24:08.904Z,99.90
2018-06-04T18:26:38.005Z,99.90
2018-06-04T18:29:06.978Z,99.90
2018-06-04T18:31:35.850Z,99.90
2018-06-04T18:34:06.449Z,99.90
2018-06-04T18:36:47.361Z,99.90
2018-06-04T18:39:16.526Z,99.90
2018-06-04T18:41:45.435Z,99.90
2018-06-04T18:44:14.502Z,99.90
2018-06-04T18:46:44.208Z,99.90
2018-06-04T18:49:14.106Z,99.90
2018-06-04T18:51:43.556Z,99.90
2018-06-04T18:54:24.517Z,99.90
2018-06-04T18:57:22.558Z,99.90
2018-06-04T18:59:51.442Z,99.90
2018-06-04T19:02:20.309Z,99.90
2018-06-04T19:04:49.671Z,99.90
2018-06-04T19:10:16.298Z,99.90
2018-06-04T19:12:45.446Z,99.90
2018-06-04T19:15:32.133Z,99.90
2018-06-04T19:18:01.082Z,99.90
2018-06-04T19:20:30.907Z,99.90
2018-06-04T19:23:05.799Z,99.90
2018-06-04T19:25:36.504Z,99.90
2018-06-04T19:28:05.922Z,99.90
2018-06-04T19:30:34.740Z,99.90
2018-06-04T19:33:04.903Z,99.90
2018-06-04T19:53:47.156Z,99.90
2018-06-04T19:56:19.145Z,99.90
2018-06-04T20:01:53.199Z,99.90
2018-06-04T20:07:12.729Z,99.90
2018-06-04T20:15:40.570Z,99.90
2018-06-04T20:18:09.636Z,99.90
2018-06-04T20:20:38.392Z,99.90
2018-06-04T20:23:07.154Z,99.90
2018-06-04T20:25:38.910Z,99.90
2018-06-04T20:28:09.733Z,99.90
2018-06-04T20:30:43.167Z,99.90
2018-06-04T20:35:49.965Z,99.90
2018-06-04T20:38:18.924Z,99.90
2018-06-04T20:40:47.878Z,99.90
2018-06-04T20:43:18.237Z,99.90
2018-06-04T20:46:35.832Z,99.90
2018-06-04T20:51:56.363Z,99.90
2018-06-04T20:54:25.138Z,99.90
2018-06-04T20:57:05.641Z,99.90
2018-06-04T21:05:49.267Z,99.90
2018-06-04T21:08:18.138Z,99.90
2018-06-04T21:11:07.642Z,99.90
2018-06-04T21:13:36.477Z,99.90
2018-06-04T21:16:11.158Z,99.90
2018-06-04T21:18:45.632Z,99.90
2018-06-04T21:21:14.463Z,99.90
2018-06-04T21:27:04.069Z,99.90
2018-06-04T21:35:22.424Z,99.90
2018-06-04T21:40:53.838Z,99.90
2018-06-04T21:43:26.129Z,99.90
2018-06-04T21:48:55.656Z,99.90
2018-06-04T21:51:24.302Z,99.90
2018-06-04T21:53:53.110Z,99.90
2018-06-04T21:59:36.421Z,99.90
2018-06-04T22:02:05.515Z,99.90
2018-06-04T22:04:34.172Z,99.90
2018-06-04T22:07:03.097Z,99.90
2018-06-04T22:15:30.889Z,99.90
2018-06-04T22:21:13.683Z,99.90
2018-06-04T22:24:01.810Z,99.90
2018-06-04T22:26:30.775Z,99.90
2018-06-04T22:28:59.826Z,99.90
2018-06-04T22:31:28.810Z,99.90
2018-06-04T22:33:57.583Z,99.90
2018-06-04T22:36:26.398Z,99.90
2018-06-04T22:38:55.490Z,99.90
2018-06-04T22:41:24.369Z,99.90
2018-06-04T22:43:59.418Z,99.90
2018-06-04T22:46:28.754Z,99.90
2018-06-04T22:49:07.955Z,99.90
2018-06-04T22:55:32.019Z,99.90
2018-06-04T23:01:06.581Z,99.90
2018-06-04T23:03:53.474Z,99.90
2018-06-04T23:06:23.114Z,99.90
2018-06-04T23:09:06.549Z,99.90
2018-06-04T23:11:51.677Z,99.90
2018-06-04T23:14:20.377Z,99.90
2018-06-04T23:19:42.133Z,99.90
2018-06-04T23:22:11.087Z,99.90
2018-06-04T23:27:39.138Z,99.90
2018-06-04T23:30:08.423Z,99.90
2018-06-04T23:32:37.409Z,99.90
2018-06-04T23:35:06.186Z,99.90
2018-06-04T23:38:37.868Z,99.90
2018-06-04T23:43:06.554Z,99.90
2018-06-04T23:45:35.209Z,99.90
2018-06-04T23:48:03.840Z,99.90
2018-06-04T23:53:35.913Z,99.90
2018-06-04T23:56:04.639Z,99.90
2018-06-04T23:58:33.366Z,99.90
